createdAt,value
2023-03-17T00:05:39.124Z,60.77
2023-03-17T00:16:03.325Z,61.02
2023-03-17T00:26:25.200Z,60.48
2023-03-17T00:36:51.030Z,60.56
2023-03-17T00:47:13.390Z,60.46
2023-03-17T00:57:34.504Z,60.92
2023-03-17T01:07:59.165Z,60.90
2023-03-17T01:18:23.066Z,61.42
2023-03-17T01:28:44.134Z,60.99
2023-03-17T01:39:05.694Z,60.98
2023-03-17T01:49:35.650Z,61.14
2023-03-17T02:00:00.743Z,60.42
2023-03-17T02:10:25.069Z,60.81
2023-03-17T02:20:46.774Z,60.71
2023-03-17T02:31:10.258Z,61.00
2023-03-17T02:41:31.731Z,60.56
2023-03-17T02:51:54.383Z,60.28
2023-03-17T03:02:15.621Z,60.88
2023-03-17T03:12:37.201Z,60.13
2023-03-17T03:22:58.176Z,60.16
2023-03-17T03:33:19.310Z,60.02
2023-03-17T03:43:41.288Z,60.44
2023-03-17T03:54:02.792Z,60.01
2023-03-17T04:04:23.928Z,59.98
2023-03-17T04:14:45.942Z,60.07
2023-03-17T04:25:07.658Z,59.84
2023-03-17T04:35:28.918Z,59.76
2023-03-17T04:45:50.949Z,60.89
2023-03-17T04:56:12.875Z,60.48
2023-03-17T05:06:34.304Z,60.21
2023-03-17T05:16:55.601Z,60.32
2023-03-17T05:27:17.031Z,60.37
2023-03-17T05:37:38.358Z,60.36
2023-03-17T05:47:59.753Z,59.69
2023-03-17T05:58:21.354Z,60.19
2023-03-17T06:08:42.402Z,60.79
2023-03-17T06:19:03.782Z,60.20
2023-03-17T06:29:24.979Z,60.15
2023-03-17T06:39:46.446Z,60.72
2023-03-17T06:50:12.431Z,60.70
2023-03-17T07:00:33.479Z,60.88
2023-03-17T07:10:56.297Z,60.65
2023-03-17T07:21:17.851Z,60.46
2023-03-17T07:31:39.424Z,61.02
2023-03-17T07:42:00.664Z,60.53
2023-03-17T07:52:21.784Z,59.86
2023-03-17T08:02:44.350Z,59.70
2023-03-17T08:13:05.988Z,59.76
2023-03-17T08:23:27.772Z,59.65
2023-03-17T08:33:51.586Z,59.36
2023-03-17T08:44:15.104Z,59.39
2023-03-17T08:54:36.923Z,58.90
2023-03-17T09:04:59.008Z,59.20
2023-03-17T09:15:20.872Z,58.51
2023-03-17T09:25:42.558Z,58.99
2023-03-17T09:36:04.269Z,59.05
2023-03-17T09:46:44.256Z,58.80
2023-03-17T09:57:16.898Z,59.25
2023-03-17T10:08:30.809Z,59.40
2023-03-17T10:19:05.645Z,59.50
2023-03-17T10:29:26.690Z,59.70
2023-03-17T10:39:50.557Z,59.51
2023-03-17T10:50:29.643Z,59.18
2023-03-17T11:00:57.608Z,59.39
2023-03-17T11:11:26.633Z,59.45
2023-03-17T11:22:00.434Z,59.28
2023-03-17T11:32:39.240Z,58.96
2023-03-17T11:43:22.726Z,58.91
2023-03-17T11:53:55.541Z,58.93
2023-03-17T12:04:16.694Z,59.17
2023-03-17T12:14:48.867Z,58.98
2023-03-17T12:25:19.639Z,58.95
2023-03-17T12:35:40.832Z,59.20
2023-03-17T12:46:39.609Z,58.78
2023-03-17T12:57:15.278Z,59.34
2023-03-17T13:07:49.433Z,59.19
2023-03-17T13:18:16.662Z,59.27
2023-03-17T13:28:37.650Z,59.45
2023-03-17T13:39:34.569Z,60.00
2023-03-17T13:50:02.240Z,60.36
2023-03-17T14:00:26.960Z,60.16
2023-03-17T14:10:56.331Z,60.45
2023-03-17T14:21:22.298Z,60.21
2023-03-17T14:31:52.517Z,60.79
2023-03-17T14:42:14.137Z,60.79
2023-03-17T14:52:37.434Z,60.17
2023-03-17T15:03:02.220Z,60.38
2023-03-17T15:13:25.771Z,60.58
2023-03-17T15:23:48.218Z,60.04
2023-03-17T15:34:13.784Z,60.77
2023-03-17T15:44:34.753Z,61.12
2023-03-17T15:54:58.323Z,60.81
2023-03-17T16:05:25.199Z,61.17
2023-03-17T16:15:54.580Z,60.86
2023-03-17T16:26:17.100Z,61.44
2023-03-17T16:36:40.464Z,62.23
2023-03-17T16:47:01.451Z,62.23
2023-03-17T16:57:22.778Z,62.69
2023-03-17T17:07:44.965Z,62.59
2023-03-17T17:18:15.099Z,62.52
2023-03-17T17:28:36.536Z,62.30
2023-03-17T17:38:58.042Z,62.12
2023-03-17T17:49:19.356Z,62.29
2023-03-17T17:59:40.518Z,61.99
2023-03-17T18:10:01.774Z,61.41
2023-03-17T18:20:24.199Z,60.92
2023-03-17T18:30:45.343Z,60.25
2023-03-17T18:41:07.439Z,58.98
2023-03-17T18:51:28.684Z,59.18
2023-03-17T19:01:49.987Z,59.68
2023-03-17T19:12:11.428Z,59.23
2023-03-17T19:22:34.167Z,59.12
2023-03-17T19:32:55.596Z,58.75
2023-03-17T19:43:32.538Z,58.98
2023-03-17T19:53:58.114Z,59.27
2023-03-17T20:04:21.077Z,58.72
2023-03-17T20:14:44.296Z,58.87
2023-03-17T20:25:06.678Z,58.76
2023-03-17T20:35:28.451Z,58.51
2023-03-17T20:45:51.526Z,58.55
2023-03-17T20:56:19.965Z,58.94
2023-03-17T21:06:42.446Z,58.18
2023-03-17T21:17:04.482Z,57.71
2023-03-17T21:27:25.448Z,57.25
2023-03-17T21:37:46.861Z,56.81
2023-03-17T21:48:08.234Z,57.28
2023-03-17T21:58:29.291Z,57.45
2023-03-17T22:08:50.860Z,57.60
2023-03-17T22:19:12.509Z,57.48
2023-03-17T22:29:34.069Z,57.03
2023-03-17T22:39:55.394Z,57.73
2023-03-17T22:50:16.936Z,56.78
2023-03-17T23:00:38.914Z,56.82
2023-03-17T23:11:01.927Z,56.92
2023-03-17T23:21:28.692Z,56.98
2023-03-17T23:31:49.962Z,56.82
2023-03-17T23:42:11.441Z,57.22
2023-03-17T23:52:32.915Z,56.83
